Time;durP1;ratioP1;P1;durP2;ratioP2;P2;SDS_P1;SDS_P2;PMS_P1;PMS_P2;Temp;Humidity;BMP_temperature;BMP_pressure;BME280_temperature;BME280_humidity;BME280_pressure;Samples;Min_cycle;Max_cycle;Signal;HPM_P1;HPM_P2
2023/03/05 00:01:57;;;;;;;30.40;15.10;;;;;;;2.46;80.38;98201.10;79377;1295;3013525;-60
2023/03/05 00:04:25;;;;;;;34.30;16.40;;;;;;;2.57;79.83;98199.73;78175;1295;3027055;-61
2023/03/05 00:06:54;;;;;;;33.40;15.80;;;;;;;2.43;79.80;98194.64;79463;1295;3012862;-62
2023/03/05 00:09:23;;;;;;;33.60;17.50;;;;;;;2.53;79.24;98194.54;78956;1299;3013140;-62
2023/03/05 00:11:50;;;;;;;31.40;15.30;;;;;;;2.51;79.95;98194.61;79475;1300;3012962;-61
2023/03/05 00:14:17;;;;;;;28.80;14.90;;;;;;;2.91;78.91;98187.66;79435;1300;3011660;-65
2023/03/05 00:16:44;;;;;;;30.30;14.50;;;;;;;3.28;77.79;98191.15;78208;1295;3068088;-65
2023/03/05 00:19:14;;;;;;;31.70;16.30;;;;;;;3.41;76.12;98187.60;79335;1295;3011725;-58
2023/03/05 00:21:44;;;;;;;33.50;16.40;;;;;;;3.13;76.54;98195.60;78907;1295;3013813;-64
2023/03/05 00:24:13;;;;;;;42.70;17.60;;;;;;;2.95;76.68;98186.95;79417;1295;3013634;-60
2023/03/05 00:26:43;;;;;;;30.50;17.20;;;;;;;2.64;77.44;98187.23;78265;1295;3054645;-61
2023/03/05 00:29:13;;;;;;;33.30;15.90;;;;;;;2.55;77.81;98195.10;79388;1300;3014500;-58
2023/03/05 00:31:44;;;;;;;34.70;17.40;;;;;;;2.37;78.35;98196.66;78191;1296;3050608;-59
2023/03/05 00:34:12;;;;;;;30.90;15.90;;;;;;;2.16;79.37;98205.55;79437;1301;3013625;-62
2023/03/05 00:36:41;;;;;;;35.60;17.40;;;;;;;2.23;78.87;98206.33;79415;1294;3013138;-62
2023/03/05 00:39:10;;;;;;;32.50;15.50;;;;;;;2.00;79.75;98210.11;78205;1299;3049571;-63
2023/03/05 00:41:36;;;;;;;28.30;13.10;;;;;;;2.02;79.73;98205.05;77797;1299;3014319;-62
2023/03/05 00:44:03;;;;;;;32.10;14.90;;;;;;;2.74;78.35;98214.43;79283;1295;3012972;-62
2023/03/05 00:46:32;;;;;;;31.90;15.60;;;;;;;3.35;75.16;98206.71;78158;1299;3053566;-62
2023/03/05 00:49:00;;;;;;;36.30;16.50;;;;;;;3.45;74.05;98210.06;79482;1301;3013577;-60
2023/03/05 00:51:27;;;;;;;37.40;15.50;;;;;;;3.14;74.34;98206.10;79263;1295;3012911;-62
2023/03/05 00:53:56;;;;;;;31.70;15.60;;;;;;;2.93;74.85;98209.16;78305;1298;3050113;-58
2023/03/05 00:56:23;;;;;;;35.70;17.10;;;;;;;2.72;75.60;98211.92;79268;1300;3011836;-60
2023/03/05 00:58:49;;;;;;;33.80;17.20;;;;;;;2.60;75.99;98212.19;79271;1301;3012180;-60
2023/03/05 01:01:18;;;;;;;37.70;16.60;;;;;;;2.40;76.64;98217.63;78073;1301;3051378;-61
2023/03/05 01:03:45;;;;;;;37.10;17.80;;;;;;;2.27;77.38;98211.47;79570;1295;3013841;-61
2023/03/05 01:06:15;;;;;;;37.00;16.80;;;;;;;2.39;76.45;98219.40;79475;1296;3011538;-60
2023/03/05 01:08:45;;;;;;;34.50;16.80;;;;;;;2.23;76.65;98216.52;78287;1298;3048861;-58
2023/03/05 01:11:13;;;;;;;34.80;17.30;;;;;;;2.14;76.47;98227.09;79630;1301;3013261;-62
2023/03/05 01:13:41;;;;;;;36.30;16.60;;;;;;;1.99;76.74;98219.33;79545;1300;3011756;-62
2023/03/05 01:16:09;;;;;;;34.10;15.90;;;;;;;2.03;75.93;98218.97;78317;1300;3052328;-61
2023/03/05 01:18:36;;;;;;;26.60;10.50;;;;;;;1.95;76.14;98223.46;79100;1301;3013636;-61
2023/03/05 01:21:03;;;;;;;28.20;13.00;;;;;;;2.67;75.08;98220.80;79348;1298;3011490;-65
2023/03/05 01:23:36;;;;;;;29.10;14.70;;;;;;;3.25;72.43;98217.79;78107;1298;3049924;-61
2023/03/05 01:26:03;;;;;;;29.10;14.00;;;;;;;3.38;71.76;98221.13;79384;1295;3012976;-62
2023/03/05 01:28:33;;;;;;;27.30;13.70;;;;;;;3.12;71.32;98221.40;78848;1300;3013262;-59
2023/03/05 01:31:00;;;;;;;27.70;13.90;;;;;;;3.03;71.22;98240.20;79434;1301;3013085;-64
2023/03/05 01:33:27;;;;;;;32.00;15.20;;;;;;;2.56;71.16;98230.52;79403;1298;3013648;-64
2023/03/05 01:35:55;;;;;;;33.40;13.30;;;;;;;2.37;71.07;98240.05;78149;1301;3051008;-60
2023/03/05 01:38:21;;;;;;;34.80;15.70;;;;;;;2.23;71.16;98229.14;79429;1295;3021038;-61
2023/03/05 01:40:48;;;;;;;36.90;15.30;;;;;;;2.00;71.28;98234.47;79434;1298;3011669;-63
2023/03/05 01:43:26;;;;;;;30.20;12.80;;;;;;;1.91;71.49;98235.08;78229;1298;3050839;-59
2023/03/05 01:46:35;;;;;;;33.90;14.40;;;;;;;1.74;72.04;98240.14;78371;1298;3053652;-63
2023/03/05 01:49:13;;;;;;;32.10;12.80;;;;;;;1.67;72.65;98246.61;77606;1307;3052168;-63
2023/03/05 01:51:53;;;;;;;29.30;13.60;;;;;;;1.67;72.68;98251.33;78270;1294;3069440;-59
2023/03/05 01:54:25;;;;;;;32.30;14.50;;;;;;;1.57;73.52;98245.19;78377;1297;3051698;-57
2023/03/05 01:56:52;;;;;;;35.10;13.50;;;;;;;1.62;73.44;98245.64;79611;1294;3013690;-62
2023/03/05 01:59:20;;;;;;;32.80;15.50;;;;;;;1.43;74.55;98259.95;78293;1296;3026440;-61
2023/03/05 02:01:49;;;;;;;37.00;14.80;;;;;;;1.42;74.71;98248.23;79275;1295;3020472;-61
2023/03/05 02:04:16;;;;;;;34.30;14.60;;;;;;;1.38;74.56;98260.48;79501;1295;3011635;-61
2023/03/05 02:06:44;;;;;;;33.60;16.00;;;;;;;1.24;75.35;98258.66;78272;1298;3051441;-59
2023/03/05 02:09:12;;;;;;;34.70;14.60;;;;;;;1.22;75.43;98253.74;79413;1300;3013736;-63
2023/03/05 02:11:38;;;;;;;28.20;13.90;;;;;;;1.26;75.01;98262.90;79487;1294;3011646;-59
2023/03/05 02:14:06;;;;;;;29.20;14.30;;;;;;;1.27;75.38;98264.91;78352;1295;3052065;-58
2023/03/05 02:16:35;;;;;;;27.20;12.10;;;;;;;1.23;75.76;98278.54;79331;1295;3012988;-61
2023/03/05 02:19:06;;;;;;;23.80;11.70;;;;;;;1.99;75.11;98280.63;78112;1301;3053208;-63
2023/03/05 02:21:41;;;;;;;24.20;11.40;;;;;;;2.66;72.17;98283.30;79526;1298;3013168;-63
2023/03/05 02:24:17;;;;;;;36.70;14.70;;;;;;;2.65;71.85;98288.89;78271;1298;3052391;-62
2023/03/05 02:26:45;;;;;;;27.60;14.80;;;;;;;2.44;71.38;98290.37;78019;1295;3056962;-63
2023/03/05 02:29:16;;;;;;;35.10;14.70;;;;;;;2.10;72.02;98294.34;79424;1295;3013371;-62
2023/03/05 02:31:45;;;;;;;31.50;13.20;;;;;;;2.10;71.67;98303.83;78130;1295;3049939;-63
2023/03/05 02:34:12;;;;;;;35.30;15.00;;;;;;;1.88;71.94;98301.31;79418;1298;3013300;-62
2023/03/05 02:36:39;;;;;;;27.80;13.40;;;;;;;1.57;73.12;98297.66;79410;1301;3013598;-63
2023/03/05 02:39:08;;;;;;;33.00;14.50;;;;;;;1.46;73.33;98303.80;78299;1296;3028658;-60
2023/03/05 02:41:36;;;;;;;27.00;12.50;;;;;;;1.34;73.66;98299.30;79547;1294;3012821;-59
2023/03/05 02:44:02;;;;;;;33.00;14.10;;;;;;;1.36;73.21;98297.84;79417;1295;3011731;-62
2023/03/05 02:46:32;;;;;;;28.60;14.50;;;;;;;1.26;73.37;98297.05;78167;1298;3049795;-58
2023/03/05 02:48:59;;;;;;;29.10;13.60;;;;;;;1.13;73.49;98294.11;79437;1298;3013486;-62
2023/03/05 02:51:25;;;;;;;31.00;13.90;;;;;;;1.12;73.93;98295.02;79365;1298;3013014;-58
2023/03/05 02:53:54;;;;;;;25.10;11.20;;;;;;;1.10;73.50;98304.59;78238;1296;3052229;-57
2023/03/05 02:56:22;;;;;;;28.70;13.00;;;;;;;1.04;73.71;98302.95;79446;1295;3015170;-60
2023/03/05 02:58:49;;;;;;;25.40;12.90;;;;;;;1.02;73.74;98293.01;79359;1294;3013352;-63
2023/03/05 03:01:18;;;;;;;30.70;13.20;;;;;;;0.99;74.19;98294.52;78207;1298;3049322;-61
2023/03/05 03:03:44;;;;;;;28.70;12.60;;;;;;;0.89;74.14;98296.80;79595;1298;3013269;-59
2023/03/05 03:06:11;;;;;;;29.00;13.80;;;;;;;0.91;73.56;98291.91;79442;1301;3011964;-59
2023/03/05 03:08:39;;;;;;;31.70;12.70;;;;;;;0.85;74.23;98294.20;78461;1296;3028888;-60
2023/03/05 03:11:11;;;;;;;31.40;13.50;;;;;;;0.88;73.88;98292.23;79462;1294;3011671;-59
2023/03/05 03:13:40;;;;;;;26.50;10.80;;;;;;;0.81;74.27;98292.27;78368;1298;3049893;-58
2023/03/05 03:16:09;;;;;;;29.40;12.90;;;;;;;0.85;73.82;98298.71;79562;1298;3012989;-61
2023/03/05 03:18:35;;;;;;;32.40;13.40;;;;;;;0.85;73.85;98295.23;79574;1297;3011662;-61
2023/03/05 03:21:04;;;;;;;26.30;12.50;;;;;;;0.83;73.74;98299.13;78264;1298;3052003;-59
2023/03/05 03:23:32;;;;;;;25.70;12.10;;;;;;;0.89;73.19;98309.06;79460;1295;3011674;-63
2023/03/05 03:25:59;;;;;;;26.90;11.00;;;;;;;0.69;74.00;98320.00;79428;1292;3011974;-59
2023/03/05 03:28:26;;;;;;;31.50;13.50;;;;;;;0.69;74.11;98321.05;78312;1297;3049360;-62
2023/03/05 03:30:53;;;;;;;26.70;12.80;;;;;;;0.71;74.11;98326.14;79655;1298;3019025;-58
2023/03/05 03:33:19;;;;;;;28.40;13.00;;;;;;;0.71;74.43;98328.55;79541;1298;3012448;-61
2023/03/05 03:35:48;;;;;;;27.70;11.20;;;;;;;0.66;74.32;98325.46;78361;1297;3026874;-64
2023/03/05 03:38:15;;;;;;;32.30;13.20;;;;;;;0.70;73.97;98330.82;79653;1294;3020687;-60
2023/03/05 03:40:42;;;;;;;20.80;8.80;;;;;;;0.70;74.62;98333.23;79583;1293;3011580;-59
2023/03/05 03:43:10;;;;;;;20.70;8.70;;;;;;;1.39;73.49;98324.13;78373;1297;3050017;-59
2023/03/05 03:45:41;;;;;;;25.20;11.10;;;;;;;2.08;71.63;98330.02;79572;1292;3012974;-63
2023/03/05 03:48:09;;;;;;;22.20;11.80;;;;;;;2.35;70.89;98336.23;78367;1298;3052728;-60
2023/03/05 03:50:40;;;;;;;22.90;11.30;;;;;;;2.08;70.24;98329.99;79577;1292;3015432;-61
2023/03/05 03:53:08;;;;;;;29.40;12.50;;;;;;;1.99;70.53;98326.94;78343;1297;3052928;-63
2023/03/05 03:55:36;;;;;;;28.30;12.60;;;;;;;1.67;70.48;98320.37;79545;1292;3012957;-61
2023/03/05 03:58:03;;;;;;;26.80;11.00;;;;;;;1.49;71.04;98319.75;79636;1292;3011875;-62
2023/03/05 04:00:31;;;;;;;32.30;12.60;;;;;;;1.30;71.06;98322.58;78385;1298;3048849;-62
2023/03/05 04:02:59;;;;;;;26.20;11.90;;;;;;;1.20;71.59;98322.34;79537;1298;3014807;-60
2023/03/05 04:05:25;;;;;;;31.60;13.50;;;;;;;0.77;73.04;98324.37;79587;1298;3011536;-61
2023/03/05 04:07:53;;;;;;;34.20;13.50;;;;;;;0.62;73.35;98323.05;78307;1298;3051504;-62
2023/03/05 04:10:20;;;;;;;30.70;12.60;;;;;;;0.48;74.52;98326.66;79693;1298;3012902;-64
2023/03/05 04:12:47;;;;;;;29.60;12.70;;;;;;;0.42;74.67;98322.93;79580;1292;3012489;-60
2023/03/05 04:15:22;;;;;;;26.60;12.30;;;;;;;0.40;74.45;98323.16;78343;1297;3051800;-62
2023/03/05 04:17:50;;;;;;;26.80;12.20;;;;;;;0.35;74.82;98325.23;79615;1298;3011728;-63
2023/03/05 04:20:17;;;;;;;30.90;12.10;;;;;;;0.19;75.82;98331.36;79625;1293;3011592;-62
2023/03/05 04:22:45;;;;;;;29.70;12.90;;;;;;;0.28;75.60;98335.65;78340;1298;3050163;-63
2023/03/05 04:25:12;;;;;;;32.40;12.90;;;;;;;0.19;75.87;98330.13;79568;1297;3012983;-61
2023/03/05 04:27:39;;;;;;;33.50;12.40;;;;;;;0.21;76.04;98336.45;79522;1298;3011728;-63
2023/03/05 04:30:26;;;;;;;33.70;12.70;;;;;;;0.13;75.90;98338.09;78167;1301;3048848;-61
2023/03/05 04:33:02;;;;;;;29.70;12.60;;;;;;;0.06;76.68;98338.73;78335;1297;3051214;-60
2023/03/05 04:35:29;;;;;;;31.80;12.00;;;;;;;0.18;76.02;98349.82;79449;1295;3013088;-63
2023/03/05 04:37:56;;;;;;;21.90;9.40;;;;;;;0.09;77.09;98356.52;79637;1293;3011604;-61
2023/03/05 04:40:24;;;;;;;24.00;9.60;;;;;;;0.97;76.10;98354.05;78507;1298;3057369;-64
2023/03/05 04:42:50;;;;;;;24.80;9.80;;;;;;;1.49;73.43;98358.37;79593;1293;3018874;-61
2023/03/05 04:45:17;;;;;;;25.70;11.00;;;;;;;1.57;72.29;98361.88;79661;1298;3011624;-64
2023/03/05 04:47:45;;;;;;;26.90;11.10;;;;;;;1.53;72.49;98358.06;78256;1297;3026807;-60
2023/03/05 04:50:16;;;;;;;28.90;11.20;;;;;;;1.21;72.49;98364.02;79470;1298;3011560;-61
2023/03/05 04:52:45;;;;;;;27.10;11.10;;;;;;;0.91;73.57;98374.50;78255;1298;3068521;-59
2023/03/05 04:55:12;;;;;;;29.60;12.70;;;;;;;0.87;73.12;98379.11;79582;1294;3013055;-58
2023/03/05 04:57:40;;;;;;;30.10;11.90;;;;;;;0.81;73.47;98381.27;79460;1296;3012057;-61
2023/03/05 05:00:14;;;;;;;31.30;12.40;;;;;;;0.62;74.07;98377.84;78574;1297;3054233;-60
2023/03/05 05:02:41;;;;;;;22.10;10.80;;;;;;;0.47;74.97;98379.80;79506;1298;3011652;-59
2023/03/05 05:05:11;;;;;;;26.00;12.70;;;;;;;0.38;75.66;98386.81;78376;1298;3052489;-59
2023/03/05 05:07:42;;;;;;;33.50;12.60;;;;;;;0.27;76.14;98388.59;79616;1293;3011644;-61
2023/03/05 05:10:11;;;;;;;24.40;11.10;;;;;;;0.31;75.91;98393.09;78351;1292;3071098;-62
2023/03/05 05:12:38;;;;;;;29.40;12.80;;;;;;;0.38;75.17;98399.04;79620;1293;3013600;-61
2023/03/05 05:15:06;;;;;;;31.60;12.50;;;;;;;0.33;75.59;98404.23;79539;1292;3011613;-62
2023/03/05 05:17:34;;;;;;;30.50;11.10;;;;;;;0.30;75.93;98400.52;78407;1292;3052082;-60
2023/03/05 05:20:05;;;;;;;26.10;12.30;;;;;;;0.29;76.24;98405.05;79626;1298;3013361;-64
2023/03/05 05:22:34;;;;;;;32.30;12.90;;;;;;;0.37;75.63;98416.16;78419;1297;3052771;-62
2023/03/05 05:25:00;;;;;;;25.60;10.90;;;;;;;0.34;75.77;98420.57;79648;1298;3018606;-61
2023/03/05 05:27:27;;;;;;;14.50;6.30;;;;;;;0.25;76.36;98419.16;79539;1295;3011904;-59
2023/03/05 05:29:55;;;;;;;19.70;8.20;;;;;;;1.04;75.04;98427.09;78411;1298;3027764;-59
2023/03/05 05:33:09;;;;;;;20.10;10.30;;;;;;;1.93;71.45;98421.81;80019;1301;3012793;-61
2023/03/05 05:35:38;;;;;;;21.60;10.20;;;;;;;2.15;70.39;98424.00;79149;1298;3015755;-63
2023/03/05 05:38:07;;;;;;;21.50;9.20;;;;;;;2.08;69.96;98431.58;78657;1303;3011741;-62
2023/03/05 05:40:33;;;;;;;22.60;10.60;;;;;;;1.88;70.09;98430.52;79359;1303;3013110;-60
2023/03/05 05:43:00;;;;;;;26.00;11.00;;;;;;;1.57;70.72;98435.23;79275;1304;3011903;-61
2023/03/05 05:45:27;;;;;;;19.60;9.80;;;;;;;1.46;71.29;98437.55;76080;1298;3028278;-61
2023/03/05 05:47:54;;;;;;;23.30;10.20;;;;;;;1.23;71.45;98441.39;79357;1297;3018692;-61
2023/03/05 05:50:27;;;;;;;20.70;10.20;;;;;;;1.16;71.29;98439.42;78093;1300;3055078;-61
2023/03/05 05:52:54;;;;;;;21.20;9.40;;;;;;;1.02;71.43;98443.59;79358;1300;3013245;-63
2023/03/05 05:55:21;;;;;;;22.50;10.10;;;;;;;1.10;70.58;98442.23;79349;1301;3012191;-62
2023/03/05 05:58:08;;;;;;;20.60;9.10;;;;;;;1.09;71.14;98438.82;78059;1301;3069077;-62
2023/03/05 06:00:35;;;;;;;20.60;9.90;;;;;;;1.16;70.11;98434.77;79253;1301;3013570;-61
2023/03/05 06:03:02;;;;;;;20.60;10.10;;;;;;;1.14;70.24;98445.36;79392;1295;3011947;-61
2023/03/05 06:05:31;;;;;;;20.10;9.20;;;;;;;1.16;69.88;98447.52;78178;1300;3052716;-61
2023/03/05 06:07:57;;;;;;;18.70;7.90;;;;;;;1.07;70.44;98444.77;79284;1301;3013642;-59
2023/03/05 06:10:24;;;;;;;21.60;9.70;;;;;;;1.11;69.96;98445.64;79289;1300;3011749;-61
2023/03/05 06:12:57;;;;;;;20.30;9.50;;;;;;;1.13;70.00;98450.39;78023;1295;3069552;-59
2023/03/05 06:15:24;;;;;;;23.90;9.30;;;;;;;1.25;69.43;98453.91;79338;1295;3013419;-64
2023/03/05 06:17:51;;;;;;;22.80;10.00;;;;;;;1.26;69.66;98458.18;79287;1301;3013298;-62
2023/03/05 06:20:20;;;;;;;17.40;9.00;;;;;;;1.10;69.20;98464.27;78243;1299;3053843;-61
2023/03/05 06:22:47;;;;;;;22.70;9.90;;;;;;;0.91;68.44;98458.98;79302;1299;3013187;-65
2023/03/05 06:25:13;;;;;;;22.00;9.60;;;;;;;0.91;68.50;98466.55;79283;1296;3013114;-63
2023/03/05 06:27:41;;;;;;;19.40;9.20;;;;;;;1.11;68.20;98465.81;78060;1300;3028648;-60
2023/03/05 06:30:09;;;;;;;19.80;9.80;;;;;;;1.25;68.40;98471.31;79434;1300;3012994;-60
2023/03/05 06:32:40;;;;;;;19.70;9.20;;;;;;;1.32;68.02;98475.55;78833;1295;3013646;-61
2023/03/05 06:35:07;;;;;;;20.10;8.30;;;;;;;1.45;67.10;98486.25;79225;1298;3013513;-62
2023/03/05 06:37:35;;;;;;;19.00;9.10;;;;;;;1.38;64.72;98489.64;79310;1296;3012059;-60
2023/03/05 06:40:04;;;;;;;17.90;7.00;;;;;;;1.27;60.69;98486.94;78030;1300;3051496;-63
2023/03/05 06:42:32;;;;;;;19.30;6.30;;;;;;;1.23;58.18;98487.13;79295;1301;3013017;-61
2023/03/05 06:44:59;;;;;;;14.60;5.80;;;;;;;1.23;57.33;98486.40;79202;1300;3011665;-62
2023/03/05 06:47:27;;;;;;;11.20;4.80;;;;;;;1.26;56.89;98485.45;78176;1301;3056066;-62
